createdAt,value
2018-04-22T00:01:25.400Z,3.00
2018-04-22T00:04:01.073Z,2.97
2018-04-22T00:06:36.228Z,4.10
2018-04-22T00:09:10.982Z,3.47
2018-04-22T00:11:46.034Z,3.90
2018-04-22T00:14:21.041Z,3.20
2018-04-22T00:16:55.969Z,3.27
2018-04-22T00:19:30.502Z,3.55
2018-04-22T00:22:06.048Z,3.80
2018-04-22T00:24:41.173Z,3.57
2018-04-22T00:27:16.062Z,3.50
2018-04-22T00:29:50.737Z,4.57
2018-04-22T00:32:26.251Z,3.70
2018-04-22T00:35:01.135Z,3.87
2018-04-22T00:37:36.286Z,3.83
2018-04-22T00:40:11.218Z,4.17
2018-04-22T00:42:46.277Z,5.13
2018-04-22T00:45:21.365Z,4.70
2018-04-22T00:47:56.486Z,4.60
2018-04-22T00:50:31.302Z,4.07
2018-04-22T00:53:05.975Z,3.60
2018-04-22T00:55:41.135Z,4.10
2018-04-22T00:58:16.027Z,3.67
2018-04-22T01:00:51.045Z,4.20
2018-04-22T01:03:26.309Z,3.78
2018-04-22T01:06:01.607Z,3.37
2018-04-22T01:08:37.054Z,4.22
2018-04-22T01:11:12.168Z,3.50
2018-04-22T01:13:47.125Z,4.07
2018-04-22T01:16:22.165Z,3.70
2018-04-22T01:18:57.165Z,4.03
2018-04-22T01:21:32.363Z,4.00
2018-04-22T01:24:07.200Z,3.97
2018-04-22T01:26:42.715Z,3.97
2018-04-22T01:29:17.726Z,4.50
2018-04-22T01:31:53.038Z,3.67
2018-04-22T01:34:28.375Z,3.60
2018-04-22T01:37:03.337Z,4.50
2018-04-22T01:39:38.690Z,4.37
2018-04-22T01:42:13.834Z,4.10
2018-04-22T01:44:48.682Z,3.80
2018-04-22T01:47:24.596Z,4.80
2018-04-22T01:50:00.258Z,4.13
2018-04-22T01:52:35.168Z,4.32
2018-04-22T01:55:10.118Z,3.50
2018-04-22T01:57:45.718Z,3.67
2018-04-22T02:00:21.194Z,4.20
2018-04-22T02:02:56.341Z,4.27
2018-04-22T02:05:31.184Z,3.67
2018-04-22T02:08:06.323Z,3.57
2018-04-22T02:10:41.508Z,3.90
2018-04-22T02:13:16.531Z,3.70
2018-04-22T02:15:51.465Z,4.20
2018-04-22T02:18:26.564Z,3.60
2018-04-22T02:21:01.500Z,3.50
2018-04-22T02:23:36.722Z,4.28
2018-04-22T02:26:11.105Z,3.67
2018-04-22T02:28:45.511Z,3.40
2018-04-22T02:31:20.349Z,4.83
2018-04-22T02:33:55.768Z,3.63
2018-04-22T02:36:30.584Z,4.00
2018-04-22T02:39:05.753Z,3.73
2018-04-22T02:41:40.549Z,3.80
2018-04-22T02:44:15.288Z,3.90
2018-04-22T02:46:50.331Z,4.50
2018-04-22T02:49:25.638Z,3.87
2018-04-22T02:52:00.417Z,3.93
2018-04-22T02:54:35.725Z,4.47
2018-04-22T02:57:10.498Z,3.70
2018-04-22T02:59:45.721Z,5.27
2018-04-22T03:02:20.494Z,4.30
2018-04-22T03:04:55.588Z,4.07
2018-04-22T03:07:30.764Z,4.67
2018-04-22T03:10:05.370Z,4.33
2018-04-22T03:12:40.665Z,4.22
2018-04-22T03:15:16.511Z,3.63
2018-04-22T03:17:51.529Z,4.00
2018-04-22T03:20:26.434Z,3.90
2018-04-22T03:23:01.330Z,4.05
2018-04-22T03:25:35.954Z,4.30
2018-04-22T03:28:10.406Z,4.00
2018-04-22T03:30:45.402Z,4.43
2018-04-22T03:33:20.571Z,3.73
2018-04-22T03:35:55.552Z,4.30
2018-04-22T03:38:30.605Z,4.90
2018-04-22T03:41:05.548Z,4.47
2018-04-22T03:43:41.436Z,4.47
2018-04-22T03:46:16.436Z,5.00
2018-04-22T03:48:51.441Z,4.90
2018-04-22T03:51:26.774Z,4.17
2018-04-22T03:54:01.788Z,4.20
2018-04-22T03:56:37.180Z,4.63
2018-04-22T03:59:11.966Z,4.53
2018-04-22T04:01:46.902Z,5.30
2018-04-22T04:04:21.519Z,3.80
2018-04-22T04:06:56.422Z,5.03
2018-04-22T04:09:31.384Z,4.72
2018-04-22T04:12:06.047Z,4.15
2018-04-22T04:14:41.250Z,3.97
2018-04-22T04:17:15.964Z,4.30
2018-04-22T04:20:02.190Z,4.23
2018-04-22T04:22:41.971Z,4.53
2018-04-22T04:25:36.893Z,4.30
2018-04-22T04:28:12.080Z,4.10
2018-04-22T04:30:47.467Z,4.60
2018-04-22T04:33:22.580Z,4.30
2018-04-22T04:35:58.148Z,5.70
2018-04-22T04:38:33.820Z,4.62
2018-04-22T04:41:08.575Z,5.50
2018-04-22T04:43:43.566Z,6.43
2018-04-22T04:46:18.789Z,5.70
2018-04-22T04:48:53.788Z,5.63
2018-04-22T04:51:28.871Z,5.90
2018-04-22T04:54:03.726Z,5.57
2018-04-22T04:56:38.846Z,5.37
2018-04-22T04:59:13.517Z,5.53
2018-04-22T05:01:48.138Z,5.17
2018-04-22T05:04:24.937Z,4.55
2018-04-22T05:07:00.602Z,4.50
2018-04-22T05:09:36.089Z,5.53
2018-04-22T05:12:10.829Z,5.10
2018-04-22T05:14:45.882Z,5.70
2018-04-22T05:17:21.162Z,5.53
2018-04-22T05:19:56.266Z,5.60
2018-04-22T05:22:30.991Z,5.47
2018-04-22T05:25:06.012Z,4.80
2018-04-22T05:27:41.389Z,5.30
2018-04-22T05:30:16.299Z,5.00
2018-04-22T05:32:51.226Z,5.17
2018-04-22T05:35:26.297Z,5.40
2018-04-22T05:38:01.129Z,4.53
2018-04-22T05:40:36.251Z,5.00
2018-04-22T05:43:11.074Z,4.70
2018-04-22T05:45:45.899Z,5.53
2018-04-22T05:48:20.920Z,5.30
2018-04-22T05:50:55.978Z,4.60
2018-04-22T05:53:31.062Z,5.43
2018-04-22T05:56:06.058Z,5.70
2018-04-22T05:58:41.058Z,5.10
2018-04-22T06:01:16.601Z,4.93
2018-04-22T06:03:51.796Z,4.63
2018-04-22T06:06:26.793Z,5.10
2018-04-22T06:09:01.801Z,5.10
2018-04-22T06:11:37.072Z,5.90
2018-04-22T06:14:12.152Z,5.20
2018-04-22T06:16:47.655Z,5.37
2018-04-22T06:19:22.407Z,4.90
2018-04-22T06:21:57.761Z,4.40
2018-04-22T06:24:32.752Z,5.10
2018-04-22T06:27:07.758Z,5.00
2018-04-22T06:29:42.710Z,4.95
2018-04-22T06:32:17.779Z,5.27
2018-04-22T06:34:52.597Z,5.90
2018-04-22T06:37:28.255Z,4.90
2018-04-22T06:40:03.155Z,5.47
2018-04-22T06:42:38.196Z,5.43
2018-04-22T06:45:13.177Z,5.87
2018-04-22T06:47:48.304Z,4.73
2018-04-22T06:50:24.794Z,5.33
2018-04-22T06:52:59.782Z,4.37
2018-04-22T06:55:35.058Z,4.60
2018-04-22T06:58:09.862Z,5.17
2018-04-22T07:00:44.954Z,4.60
2018-04-22T07:03:20.047Z,4.10
2018-04-22T07:05:55.212Z,5.70
2018-04-22T07:08:30.693Z,4.45
2018-04-22T07:11:05.677Z,5.27
2018-04-22T07:13:41.184Z,5.72
2018-04-22T07:16:16.053Z,4.93
2018-04-22T07:18:51.175Z,5.57
2018-04-22T07:21:26.432Z,5.33
2018-04-22T07:24:01.874Z,5.13
2018-04-22T07:26:37.140Z,5.00
2018-04-22T07:29:12.751Z,5.18
2018-04-22T07:31:47.863Z,5.77
2018-04-22T07:34:23.081Z,5.00
2018-04-22T07:36:58.000Z,5.10
2018-04-22T07:39:33.224Z,5.67
2018-04-22T07:42:08.376Z,5.67
2018-04-22T07:44:43.418Z,4.80
2018-04-22T07:47:18.093Z,4.30
2018-04-22T07:49:53.126Z,5.40
2018-04-22T07:52:28.393Z,5.13
2018-04-22T07:55:03.456Z,5.80
2018-04-22T07:57:38.222Z,5.40
2018-04-22T08:00:13.419Z,7.27
2018-04-22T08:02:48.019Z,9.37
2018-04-22T08:05:23.150Z,6.10
2018-04-22T08:07:58.105Z,8.03
2018-04-22T08:10:33.110Z,7.47
2018-04-22T08:13:08.013Z,7.37
2018-04-22T08:15:42.648Z,8.00
2018-04-22T08:18:17.484Z,7.43
2018-04-22T08:20:52.359Z,7.60
2018-04-22T08:23:27.293Z,7.00
2018-04-22T08:26:02.202Z,7.10
2018-04-22T08:28:37.660Z,7.37
2018-04-22T08:31:12.407Z,8.17
2018-04-22T08:33:47.494Z,7.47
2018-04-22T08:36:22.577Z,7.70
2018-04-22T08:38:58.043Z,7.73
2018-04-22T08:41:33.162Z,7.55
2018-04-22T08:44:08.093Z,7.73
2018-04-22T08:46:43.335Z,8.37
2018-04-22T08:49:18.489Z,8.07
2018-04-22T08:51:53.472Z,7.93
2018-04-22T08:54:28.938Z,8.73
2018-04-22T08:57:04.074Z,8.93
2018-04-22T08:59:39.326Z,8.83
2018-04-22T09:02:14.377Z,8.53
2018-04-22T09:04:49.115Z,8.83
2018-04-22T09:07:25.466Z,9.88
2018-04-22T09:10:00.306Z,8.80
2018-04-22T09:12:35.461Z,7.73
2018-04-22T09:15:10.220Z,8.73
2018-04-22T09:17:45.397Z,11.47
2018-04-22T09:20:20.686Z,9.87
2018-04-22T09:22:56.106Z,10.50
2018-04-22T09:25:31.438Z,10.55
2018-04-22T09:28:06.582Z,10.97
2018-04-22T09:30:42.132Z,9.77
2018-04-22T09:33:17.245Z,10.85
2018-04-22T09:35:52.204Z,11.87
2018-04-22T09:38:27.718Z,10.60
2018-04-22T09:41:03.188Z,10.77
2018-04-22T09:43:38.738Z,11.38
2018-04-22T09:46:13.673Z,10.83
2018-04-22T09:48:48.332Z,11.60
2018-04-22T09:51:23.631Z,11.77
2018-04-22T09:53:58.777Z,12.90
2018-04-22T09:56:34.308Z,12.10
2018-04-22T09:59:09.225Z,12.93
2018-04-22T10:01:44.407Z,12.50
2018-04-22T10:04:19.438Z,12.97
2018-04-22T10:06:54.809Z,13.10
2018-04-22T10:09:30.282Z,13.07
2018-04-22T10:12:04.968Z,13.00
2018-04-22T10:14:40.505Z,12.88
2018-04-22T10:17:15.394Z,12.20
2018-04-22T10:19:50.317Z,13.37
2018-04-22T10:22:25.669Z,14.60
2018-04-22T10:25:01.021Z,13.70
2018-04-22T10:27:35.896Z,13.00
2018-04-22T10:30:11.245Z,12.67
2018-04-22T10:32:46.548Z,13.40
2018-04-22T10:35:21.266Z,13.37
2018-04-22T10:37:56.394Z,14.00
2018-04-22T10:40:31.519Z,14.02
2018-04-22T10:43:06.395Z,13.00
2018-04-22T10:45:41.690Z,14.70
2018-04-22T10:48:16.966Z,13.20
2018-04-22T10:50:52.267Z,13.80
2018-04-22T10:53:26.904Z,13.40
2018-04-22T10:56:02.325Z,13.87
2018-04-22T10:58:37.033Z,14.70
2018-04-22T11:01:12.430Z,14.23
2018-04-22T11:03:47.575Z,14.73
2018-04-22T11:06:22.876Z,14.63
2018-04-22T11:08:58.316Z,15.00
2018-04-22T11:11:33.577Z,14.90
2018-04-22T11:14:08.681Z,14.00
2018-04-22T11:16:44.001Z,15.77
2018-04-22T11:19:19.464Z,18.53
2018-04-22T11:21:54.604Z,15.90
2018-04-22T11:24:30.044Z,14.93
2018-04-22T11:27:04.796Z,16.13
2018-04-22T11:29:39.901Z,14.32
2018-04-22T11:32:15.440Z,17.15
2018-04-22T11:34:50.438Z,14.97
2018-04-22T11:37:26.809Z,17.94
2018-04-22T11:40:01.914Z,16.97
2018-04-22T11:42:37.657Z,15.10
2018-04-22T11:45:12.502Z,15.37
2018-04-22T11:47:47.471Z,16.45
2018-04-22T11:50:22.521Z,16.80
2018-04-22T11:52:57.126Z,15.70
2018-04-22T11:55:32.671Z,14.23
2018-04-22T11:58:08.411Z,17.67
2018-04-22T12:00:43.452Z,17.00
2018-04-22T12:03:18.159Z,17.97
2018-04-22T12:05:53.080Z,15.30
2018-04-22T12:08:28.182Z,17.57
2018-04-22T12:11:03.518Z,16.57
2018-04-22T12:13:38.481Z,17.95
2018-04-22T12:16:13.524Z,18.97
2018-04-22T12:18:48.523Z,17.90
2018-04-22T12:21:23.636Z,16.83
2018-04-22T12:23:58.674Z,17.27
2018-04-22T12:26:33.817Z,15.20
2018-04-22T12:29:08.515Z,16.70
2018-04-22T12:31:43.813Z,16.17
2018-04-22T12:34:19.204Z,18.10
2018-04-22T12:36:54.534Z,17.73
2018-04-22T12:39:29.764Z,18.85
2018-04-22T12:42:04.629Z,18.00
2018-04-22T12:44:39.778Z,17.02
2018-04-22T12:47:14.859Z,15.40
2018-04-22T12:49:49.822Z,15.73
2018-04-22T12:52:25.930Z,15.35
2018-04-22T12:55:00.740Z,17.00
2018-04-22T12:57:35.873Z,16.37
2018-04-22T13:00:10.724Z,16.17
2018-04-22T13:02:45.890Z,17.90
2018-04-22T13:05:21.077Z,16.13
2018-04-22T13:07:56.664Z,13.77
2018-04-22T13:10:31.966Z,16.57
2018-04-22T13:13:06.831Z,12.43
2018-04-22T13:15:42.294Z,14.90
2018-04-22T13:18:17.336Z,14.20
2018-04-22T13:20:52.706Z,17.33
2018-04-22T13:23:27.932Z,17.03
2018-04-22T13:26:02.962Z,14.30
2018-04-22T13:28:37.696Z,15.02
2018-04-22T13:31:12.740Z,14.30
2018-04-22T13:33:47.760Z,15.30
2018-04-22T13:36:23.021Z,14.97
2018-04-22T13:38:58.169Z,13.70
2018-04-22T13:41:33.750Z,15.10
2018-04-22T13:44:08.800Z,14.60
2018-04-22T13:46:43.610Z,15.30
2018-04-22T13:49:18.780Z,12.90
2018-04-22T13:51:54.051Z,11.30
2018-04-22T13:54:29.410Z,10.93
2018-04-22T13:57:04.816Z,11.57
2018-04-22T13:59:39.765Z,11.63
2018-04-22T14:02:14.897Z,12.60
2018-04-22T14:04:50.069Z,11.03
2018-04-22T14:07:26.110Z,12.08
2018-04-22T14:10:00.917Z,11.17
2018-04-22T14:12:35.917Z,10.83
2018-04-22T14:15:10.762Z,10.10
2018-04-22T14:17:46.060Z,11.50
2018-04-22T14:20:20.864Z,9.87
2018-04-22T14:22:56.784Z,10.23
2018-04-22T14:25:31.270Z,8.07
2018-04-22T14:28:05.934Z,7.67
2018-04-22T14:30:40.450Z,7.40
2018-04-22T14:33:15.350Z,6.50
2018-04-22T14:35:50.355Z,6.47
2018-04-22T14:38:26.166Z,7.25
2018-04-22T14:41:01.382Z,6.87
2018-04-22T14:43:36.980Z,6.60
2018-04-22T14:46:14.353Z,6.10
2018-04-22T14:49:01.078Z,6.67
2018-04-22T14:51:36.208Z,5.97
2018-04-22T14:54:11.157Z,5.93
2018-04-22T14:56:46.172Z,6.37
2018-04-22T14:59:21.230Z,6.93
2018-04-22T15:01:56.313Z,7.00
2018-04-22T15:04:31.031Z,6.73
2018-04-22T15:07:06.000Z,6.27
2018-04-22T15:09:41.203Z,6.47
2018-04-22T15:12:16.120Z,7.10
2018-04-22T15:14:51.192Z,6.17
2018-04-22T15:17:26.542Z,6.50
2018-04-22T15:20:01.111Z,7.20
2018-04-22T15:22:36.369Z,7.20
2018-04-22T15:25:11.542Z,7.43
2018-04-22T15:27:46.597Z,7.03
2018-04-22T15:30:21.615Z,7.43
2018-04-22T15:32:56.921Z,7.37
2018-04-22T15:35:32.049Z,6.80
2018-04-22T15:38:07.165Z,7.30
2018-04-22T15:40:42.218Z,6.57
2018-04-22T15:43:17.082Z,6.60
2018-04-22T15:45:52.377Z,7.60
2018-04-22T15:48:34.243Z,7.47
2018-04-22T15:51:09.493Z,6.70
2018-04-22T15:53:44.283Z,7.50
2018-04-22T15:56:19.600Z,7.30
2018-04-22T15:58:54.465Z,8.00
2018-04-22T16:01:30.207Z,7.55
2018-04-22T16:04:05.163Z,7.23
2018-04-22T16:06:39.784Z,7.90
2018-04-22T16:09:14.757Z,6.80
2018-04-22T16:11:50.118Z,6.67
2018-04-22T16:14:26.498Z,6.80
2018-04-22T16:17:01.379Z,12.80
2018-04-22T16:19:36.102Z,7.90
2018-04-22T16:22:11.063Z,9.60
2018-04-22T16:24:45.997Z,8.50
2018-04-22T16:27:21.168Z,76.63
2018-04-22T16:29:56.252Z,16.03
2018-04-22T16:32:31.520Z,5.87
2018-04-22T16:35:06.109Z,29.63
2018-04-22T16:37:41.317Z,5.32
2018-04-22T16:40:16.705Z,14.27
2018-04-22T16:42:52.103Z,5.40
2018-04-22T16:45:27.371Z,6.00
2018-04-22T16:48:02.248Z,5.03
2018-04-22T16:50:37.255Z,6.03
2018-04-22T16:53:12.086Z,5.40
2018-04-22T16:55:47.229Z,5.00
2018-04-22T16:58:22.453Z,4.83
2018-04-22T17:00:57.669Z,4.50
2018-04-22T17:03:32.484Z,4.53
2018-04-22T17:06:08.067Z,4.65
2018-04-22T17:08:43.510Z,4.53
2018-04-22T17:11:18.211Z,5.37
2018-04-22T17:13:52.851Z,5.27
2018-04-22T17:16:27.833Z,5.17
2018-04-22T17:19:02.638Z,5.50
2018-04-22T17:21:37.713Z,5.60
2018-04-22T17:24:13.232Z,5.27
2018-04-22T17:26:48.224Z,5.87
2018-04-22T17:29:23.380Z,4.97
2018-04-22T17:31:58.373Z,5.77
2018-04-22T17:34:32.737Z,5.53
2018-04-22T17:37:08.193Z,5.30
2018-04-22T17:39:43.363Z,5.80
2018-04-22T17:42:18.428Z,6.43
2018-04-22T17:44:53.524Z,5.70
2018-04-22T17:47:28.557Z,5.90
2018-04-22T17:50:03.421Z,6.30
2018-04-22T17:52:38.896Z,6.23
2018-04-22T17:55:13.871Z,5.13
2018-04-22T17:57:49.184Z,5.23
2018-04-22T18:00:23.824Z,5.40
2018-04-22T18:02:58.853Z,4.90
2018-04-22T18:05:34.571Z,4.72
2018-04-22T18:08:09.576Z,4.17
2018-04-22T18:10:44.995Z,5.03
2018-04-22T18:13:19.840Z,4.73
2018-04-22T18:15:55.343Z,5.00
2018-04-22T18:18:30.298Z,5.10
2018-04-22T18:21:04.788Z,4.80
2018-04-22T18:23:39.991Z,5.20
2018-04-22T18:26:14.801Z,5.63
2018-04-22T18:28:49.759Z,4.77
2018-04-22T18:31:24.617Z,3.57
2018-04-22T18:33:59.428Z,3.80
2018-04-22T18:36:34.638Z,3.65
2018-04-22T18:39:09.711Z,3.20
2018-04-22T18:41:44.600Z,3.00
2018-04-22T18:44:19.442Z,2.50
2018-04-22T18:46:54.430Z,2.90
2018-04-22T18:49:29.620Z,2.67
2018-04-22T18:52:04.751Z,2.43
2018-04-22T18:54:39.604Z,2.67
2018-04-22T18:57:14.469Z,3.33
2018-04-22T18:59:49.447Z,2.97
2018-04-22T19:02:24.412Z,2.50
2018-04-22T19:04:59.008Z,2.37
2018-04-22T19:07:34.633Z,2.53
2018-04-22T19:10:09.500Z,2.37
2018-04-22T19:12:44.480Z,2.67
2018-04-22T19:15:19.380Z,2.83
2018-04-22T19:17:54.365Z,2.70
2018-04-22T19:20:29.480Z,2.73
2018-04-22T19:23:04.432Z,2.80
2018-04-22T19:25:39.828Z,2.58
2018-04-22T19:28:15.013Z,2.60
2018-04-22T19:30:49.837Z,2.67
2018-04-22T19:33:24.916Z,2.70
2018-04-22T19:36:01.619Z,3.33
2018-04-22T19:38:36.593Z,3.47
2018-04-22T19:41:12.385Z,3.07
2018-04-22T19:43:47.564Z,3.67
2018-04-22T19:46:22.983Z,3.77
2018-04-22T19:48:57.780Z,4.00
2018-04-22T19:51:32.938Z,3.60
2018-04-22T19:54:07.583Z,3.53
2018-04-22T19:56:42.465Z,3.55
2018-04-22T19:59:17.441Z,4.25
2018-04-22T20:01:52.021Z,4.62
2018-04-22T20:04:26.888Z,5.33
2018-04-22T20:07:01.559Z,5.67
2018-04-22T20:09:36.778Z,6.22
2018-04-22T20:12:12.603Z,5.60
2018-04-22T20:14:47.631Z,5.57
2018-04-22T20:17:22.681Z,6.17
2018-04-22T20:19:57.904Z,6.20
2018-04-22T20:22:33.744Z,5.90
2018-04-22T20:25:08.510Z,7.30
2018-04-22T20:27:43.818Z,7.05
2018-04-22T20:30:19.000Z,6.93
2018-04-22T20:32:53.748Z,7.90
2018-04-22T20:35:28.833Z,6.87
2018-04-22T20:38:03.562Z,6.87
2018-04-22T20:40:38.187Z,7.57
2018-04-22T20:43:13.005Z,8.20
2018-04-22T20:45:47.541Z,7.97
2018-04-22T20:48:22.679Z,8.00
2018-04-22T20:50:57.590Z,7.37
2018-04-22T20:53:32.468Z,7.57
2018-04-22T20:56:07.084Z,8.20
2018-04-22T20:58:41.880Z,8.10
2018-04-22T21:01:16.600Z,7.40
2018-04-22T21:03:51.584Z,7.03
2018-04-22T21:06:26.999Z,7.75
2018-04-22T21:09:02.303Z,7.67
2018-04-22T21:11:37.232Z,8.63
2018-04-22T21:14:12.037Z,9.10
2018-04-22T21:16:46.990Z,9.13
2018-04-22T21:19:22.133Z,9.97
2018-04-22T21:21:56.750Z,10.20
2018-04-22T21:24:32.140Z,9.80
2018-04-22T21:27:06.827Z,10.00
2018-04-22T21:29:41.799Z,8.88
2018-04-22T21:32:16.667Z,10.00
2018-04-22T21:34:51.373Z,9.60
2018-04-22T21:37:27.045Z,10.00
2018-04-22T21:40:02.228Z,10.27
2018-04-22T21:42:37.191Z,9.77
2018-04-22T21:45:12.073Z,9.90
2018-04-22T21:53:46.712Z,8.85
2018-04-22T21:56:21.773Z,9.67
2018-04-22T21:58:56.321Z,8.67
2018-04-22T22:01:31.747Z,9.37
2018-04-22T22:04:06.565Z,8.73
2018-04-22T22:06:41.770Z,9.13
2018-04-22T22:09:17.077Z,9.30
2018-04-22T22:11:52.097Z,9.20
2018-04-22T22:14:26.977Z,9.20
2018-04-22T22:17:01.904Z,9.50
2018-04-22T22:19:36.901Z,8.97
2018-04-22T22:22:11.662Z,8.53
2018-04-22T22:24:46.264Z,10.15
2018-04-22T22:27:20.985Z,9.90
2018-04-22T22:29:55.981Z,9.50
2018-04-22T22:32:30.970Z,9.87
2018-04-22T22:35:05.763Z,9.13
2018-04-22T22:37:40.844Z,10.97
2018-04-22T22:40:15.948Z,10.23
2018-04-22T22:42:50.371Z,10.50
2018-04-22T22:45:25.730Z,11.00
2018-04-22T22:48:00.822Z,11.05
2018-04-22T22:50:36.361Z,10.67
2018-04-22T22:53:11.261Z,10.87
2018-04-22T22:55:46.149Z,11.07
2018-04-22T22:58:21.069Z,10.90
2018-04-22T23:00:55.942Z,11.32
2018-04-22T23:03:30.546Z,10.47
2018-04-22T23:06:05.284Z,11.10
2018-04-22T23:08:40.273Z,11.30
2018-04-22T23:11:15.061Z,10.77
2018-04-22T23:13:50.360Z,10.80
2018-04-22T23:16:25.220Z,11.90
2018-04-22T23:19:00.237Z,11.57
2018-04-22T23:21:35.353Z,11.87
2018-04-22T23:24:10.136Z,11.00
2018-04-22T23:26:45.460Z,11.50
2018-04-22T23:29:20.538Z,11.37
2018-04-22T23:31:55.545Z,12.00
2018-04-22T23:34:30.637Z,10.77
2018-04-22T23:37:05.308Z,12.00
2018-04-22T23:39:40.541Z,11.85
2018-04-22T23:42:16.389Z,11.60
2018-04-22T23:44:51.748Z,12.20
2018-04-22T23:47:26.692Z,12.13
2018-04-22T23:50:01.401Z,11.47
2018-04-22T23:52:36.549Z,12.30
2018-04-22T23:55:11.532Z,11.93
2018-04-22T23:57:46.592Z,9.95
